Time;durP1;ratioP1;P1;durP2;ratioP2;P2;SDS_P1;SDS_P2;PMS_P1;PMS_P2;Temp;Humidity;BMP_temperature;BMP_pressure;BME280_temperature;BME280_humidity;BME280_pressure;Samples;Min_cycle;Max_cycle;Signal;HPM_P1;HPM_P2
2022/04/21 00:00:34;;;;;;;7.65;5.55;;;8.30;99.90;;;;;;5033360;28;20036;-78
2022/04/21 00:03:00;;;;;;;9.75;6.43;;;8.30;99.90;;;;;;5015526;28;20047;-79
2022/04/21 00:05:25;;;;;;;8.82;5.90;;;8.30;99.90;;;;;;5032095;28;20033;-80
2022/04/21 00:07:51;;;;;;;9.90;6.30;;;8.30;99.90;;;;;;5030832;28;20495;-78
2022/04/21 00:10:17;;;;;;;11.85;6.43;;;8.30;99.90;;;;;;5031429;28;20117;-79
2022/04/21 00:12:43;;;;;;;10.63;6.25;;;8.30;99.90;;;;;;5031103;28;20144;-78
2022/04/21 00:15:10;;;;;;;10.85;6.60;;;8.20;99.90;;;;;;5058817;28;20033;-79
2022/04/21 00:17:36;;;;;;;10.07;6.80;;;8.20;99.90;;;;;;5026829;28;20513;-78
2022/04/21 00:20:01;;;;;;;10.60;6.88;;;8.30;99.90;;;;;;5032226;28;20125;-78
2022/04/21 00:25:12;;;;;;;10.32;7.07;;;8.20;99.90;;;;;;5031726;28;20045;-78
2022/04/21 00:27:42;;;;;;;10.38;7.38;;;8.20;99.90;;;;;;5046963;28;20124;-78
2022/04/21 00:30:09;;;;;;;9.68;7.10;;;8.10;99.90;;;;;;5030238;28;20160;-78
2022/04/21 00:32:36;;;;;;;10.82;6.97;;;8.20;99.90;;;;;;5030717;28;20037;-78
2022/04/21 00:35:03;;;;;;;9.73;7.47;;;8.20;99.90;;;;;;5030229;28;20044;-79
2022/04/21 00:37:29;;;;;;;12.30;7.78;;;8.20;99.90;;;;;;5031524;28;20036;-79
2022/04/21 00:39:55;;;;;;;12.93;7.88;;;8.10;99.90;;;;;;5033069;28;20071;-79
2022/04/21 00:42:21;;;;;;;12.50;7.93;;;8.10;99.90;;;;;;5033617;28;20056;-79
2022/04/21 00:44:49;;;;;;;12.02;7.70;;;8.10;99.90;;;;;;5034570;28;20411;-79
2022/04/21 00:47:14;;;;;;;10.65;7.72;;;8.10;99.90;;;;;;5035873;28;20040;-78
2022/04/21 00:49:40;;;;;;;13.85;7.85;;;8.00;99.90;;;;;;5033592;28;20112;-79
2022/04/21 00:52:07;;;;;;;14.23;8.23;;;8.10;99.90;;;;;;5032880;28;20059;-79
2022/04/21 00:54:33;;;;;;;11.73;8.13;;;8.10;99.90;;;;;;5017480;28;20077;-78
2022/04/21 00:57:00;;;;;;;11.68;8.23;;;8.00;99.90;;;;;;5031960;28;20040;-78
2022/04/21 00:59:26;;;;;;;11.30;8.05;;;8.00;99.90;;;;;;5031019;28;20037;-78
2022/04/21 01:04:39;;;;;;;10.77;8.35;;;8.10;99.90;;;;;;5032444;28;20457;-78
2022/04/21 01:07:08;;;;;;;11.35;8.23;;;8.00;99.90;;;;;;5032639;28;20037;-80
2022/04/21 01:09:37;;;;;;;13.05;9.05;;;8.00;99.90;;;;;;5031850;28;20038;-79
2022/04/21 01:12:11;;;;;;;15.10;9.23;;;8.00;99.90;;;;;;5030785;28;20526;-79
2022/04/21 01:14:37;;;;;;;14.63;8.93;;;7.90;99.90;;;;;;5031659;28;20045;-79
2022/04/21 01:17:04;;;;;;;14.63;8.48;;;7.80;99.90;;;;;;5015429;28;20451;-78
2022/04/21 01:19:29;;;;;;;13.48;9.00;;;7.80;99.90;;;;;;5030502;28;20041;-79
2022/04/21 01:21:55;;;;;;;15.00;8.80;;;7.80;99.90;;;;;;5031884;28;20399;-79
2022/04/21 01:24:20;;;;;;;13.70;8.98;;;7.70;99.90;;;;;;5031207;28;20045;-79
2022/04/21 01:26:47;;;;;;;11.77;8.55;;;7.70;99.90;;;;;;5033373;28;20038;-79
2022/04/21 01:29:13;;;;;;;14.10;8.20;;;7.70;99.90;;;;;;5032017;28;20041;-80
2022/04/21 01:31:38;;;;;;;12.88;9.23;;;7.60;99.90;;;;;;5032672;28;20044;-79
2022/04/21 01:34:04;;;;;;;14.93;9.02;;;7.60;99.90;;;;;;5031860;28;20483;-79
2022/04/21 01:36:30;;;;;;;13.18;9.98;;;7.60;99.90;;;;;;5044310;28;20034;-80
2022/04/21 01:41:40;;;;;;;;;;;7.50;99.90;;;;;;5035696;28;20584;-79
2022/04/21 01:44:05;;;;;;;14.13;9.82;;;7.50;99.90;;;;;;5017323;28;19917;-79
2022/04/21 01:46:31;;;;;;;12.77;8.60;;;7.40;99.90;;;;;;5035277;28;20518;-79
2022/04/21 01:48:56;;;;;;;12.38;8.85;;;7.30;99.90;;;;;;5034012;28;20116;-79
2022/04/21 01:51:22;;;;;;;13.48;9.40;;;7.30;99.90;;;;;;5034701;28;20064;-79
2022/04/21 01:53:48;;;;;;;15.13;9.73;;;7.30;99.90;;;;;;5034225;28;20037;-79
2022/04/21 01:56:14;;;;;;;15.68;9.82;;;7.20;99.90;;;;;;5034530;28;20645;-79
2022/04/21 01:58:40;;;;;;;17.35;10.45;;;7.20;99.90;;;;;;5033357;28;20049;-79
2022/04/21 02:01:06;;;;;;;15.05;10.13;;;7.20;99.90;;;;;;5033880;28;20045;-78
2022/04/21 02:03:32;;;;;;;15.20;10.55;;;7.20;99.90;;;;;;5031723;28;20041;-79
2022/04/21 02:05:58;;;;;;;13.40;9.90;;;7.20;99.90;;;;;;5032131;28;20045;-79
2022/04/21 02:08:24;;;;;;;15.25;9.95;;;7.20;99.90;;;;;;5033053;28;20042;-79
2022/04/21 02:10:49;;;;;;;16.10;10.55;;;7.10;99.90;;;;;;5032351;28;20414;-79
2022/04/21 02:13:15;;;;;;;15.20;9.68;;;7.10;99.90;;;;;;5033842;28;20087;-79
2022/04/21 02:15:41;;;;;;;14.15;10.10;;;7.10;99.90;;;;;;5033824;28;20037;-79
2022/04/21 02:18:07;;;;;;;15.10;10.38;;;7.00;99.90;;;;;;5035477;28;20053;-79
2022/04/21 02:20:32;;;;;;;16.08;10.60;;;6.90;99.90;;;;;;5033903;28;20033;-79
2022/04/21 02:22:58;;;;;;;13.07;9.95;;;6.90;99.90;;;;;;5032804;28;20120;-80
2022/04/21 02:25:23;;;;;;;17.27;11.13;;;6.80;99.90;;;;;;5032967;28;20056;-79
2022/04/21 02:27:49;;;;;;;15.52;10.48;;;6.80;99.90;;;;;;5032858;28;20107;-80
2022/04/21 02:30:17;;;;;;;15.30;10.73;;;6.80;99.90;;;;;;5031388;28;20038;-81
2022/04/21 02:32:44;;;;;;;15.68;11.00;;;6.80;99.90;;;;;;5032528;28;20064;-79
2022/04/21 02:35:11;;;;;;;16.35;11.07;;;6.80;99.90;;;;;;5031742;28;20069;-80
2022/04/21 02:37:37;;;;;;;15.55;11.45;;;6.70;99.90;;;;;;5031628;28;20049;-79
2022/04/21 02:40:04;;;;;;;16.65;10.98;;;6.70;99.90;;;;;;5032873;28;20037;-79
2022/04/21 02:42:29;;;;;;;17.30;11.40;;;6.70;99.90;;;;;;5032081;28;20057;-80
2022/04/21 02:44:55;;;;;;;16.67;11.68;;;6.70;99.90;;;;;;5032364;28;20045;-80
2022/04/21 02:47:21;;;;;;;19.70;12.02;;;6.80;99.90;;;;;;5031925;28;20043;-79
2022/04/21 02:49:48;;;;;;;15.63;11.40;;;6.70;99.90;;;;;;5030533;28;20033;-79
2022/04/21 02:52:14;;;;;;;15.27;11.13;;;6.70;99.90;;;;;;5031476;28;20075;-79
2022/04/21 02:57:26;;;;;;;20.70;11.82;;;6.70;99.90;;;;;;5029189;28;20033;-79
2022/04/21 03:00:05;;;;;;;17.10;11.88;;;6.70;99.90;;;;;;5030338;28;20050;-79
2022/04/21 03:02:30;;;;;;;16.65;11.00;;;6.70;99.90;;;;;;5033978;28;20034;-80
2022/04/21 03:04:56;;;;;;;17.23;11.63;;;6.90;99.90;;;;;;5037587;28;20051;-78
2022/04/21 03:07:22;;;;;;;18.13;12.20;;;6.70;99.90;;;;;;5036649;28;20056;-79
2022/04/21 03:09:55;;;;;;;16.42;11.68;;;6.80;99.90;;;;;;5033693;28;20033;-80
2022/04/21 03:12:26;;;;;;;17.08;12.35;;;6.80;99.90;;;;;;5030754;28;20052;-78
2022/04/21 03:14:53;;;;;;;16.85;11.77;;;6.80;99.90;;;;;;5031705;28;20037;-79
2022/04/21 03:17:18;;;;;;;16.92;11.63;;;6.80;99.90;;;;;;5032332;28;20040;-80
2022/04/21 03:19:44;;;;;;;16.67;10.82;;;6.90;99.90;;;;;;5028900;28;20041;-79
2022/04/21 03:24:58;;;;;;;16.17;10.93;;;6.90;99.90;;;;;;5028437;28;20045;-80
2022/04/21 03:27:26;;;;;;;17.65;11.40;;;6.80;99.90;;;;;;5029229;28;20040;-79
2022/04/21 03:29:52;;;;;;;14.70;10.63;;;6.90;99.90;;;;;;5031223;28;20397;-79
2022/04/21 03:32:18;;;;;;;15.18;10.07;;;6.80;99.90;;;;;;5029679;28;20119;-79
2022/04/21 03:34:44;;;;;;;15.52;10.60;;;6.80;99.90;;;;;;5032046;28;20091;-80
2022/04/21 03:37:15;;;;;;;13.60;9.65;;;6.80;99.90;;;;;;5033087;28;20080;-78
2022/04/21 03:39:42;;;;;;;16.30;9.80;;;6.70;99.90;;;;;;5019310;28;20044;-79
2022/04/21 03:42:20;;;;;;;14.40;9.60;;;6.80;99.90;;;;;;5034970;28;20427;-79
2022/04/21 03:44:46;;;;;;;13.55;10.10;;;6.70;99.90;;;;;;5032592;28;20127;-79
2022/04/21 03:47:12;;;;;;;14.43;9.82;;;6.70;99.90;;;;;;5033155;28;20075;-79
2022/04/21 03:49:37;;;;;;;12.43;9.00;;;6.60;99.90;;;;;;5033494;28;20049;-80
2022/04/21 03:52:03;;;;;;;13.32;9.35;;;6.60;99.90;;;;;;5034263;28;20034;-80
2022/04/21 03:54:29;;;;;;;15.48;9.38;;;6.50;99.90;;;;;;5034509;28;20128;-80
2022/04/21 03:56:54;;;;;;;13.93;9.23;;;6.50;99.90;;;;;;5034834;28;20048;-79
2022/04/21 03:59:22;;;;;;;13.52;8.63;;;6.50;99.90;;;;;;5034531;28;20049;-79
2022/04/21 04:01:48;;;;;;;13.73;9.40;;;6.40;99.90;;;;;;5033675;28;20321;-80
2022/04/21 04:04:13;;;;;;;14.73;9.13;;;6.40;99.90;;;;;;5033850;28;20045;-80
2022/04/21 04:12:11;;;;;;;13.32;8.38;;;6.30;99.90;;;;;;5032678;28;20061;-79
2022/04/21 04:14:37;;;;;;;12.38;8.55;;;6.30;99.90;;;;;;5032688;28;20082;-80
2022/04/21 04:17:08;;;;;;;14.88;8.35;;;6.30;99.90;;;;;;5033079;28;20057;-79
2022/04/21 04:19:34;;;;;;;14.38;8.48;;;6.30;99.90;;;;;;5028644;28;20037;-79
2022/04/21 04:22:01;;;;;;;13.25;9.05;;;6.30;99.90;;;;;;5033392;28;20130;-79
2022/04/21 04:24:27;;;;;;;11.35;8.10;;;6.30;99.90;;;;;;5032495;28;20105;-79
2022/04/21 04:26:53;;;;;;;13.88;9.02;;;6.30;99.90;;;;;;5033374;28;20041;-80
2022/04/21 04:29:22;;;;;;;13.02;8.50;;;6.20;99.90;;;;;;5015165;28;20047;-80
2022/04/21 04:31:57;;;;;;;12.95;8.48;;;6.20;99.90;;;;;;5025559;28;20462;-79
2022/04/21 04:34:23;;;;;;;11.60;8.10;;;6.30;99.90;;;;;;5039029;28;20030;-79
2022/04/21 04:36:49;;;;;;;10.98;8.07;;;6.20;99.90;;;;;;5033005;28;20048;-79
2022/04/21 04:39:15;;;;;;;19.70;10.10;;;6.20;99.90;;;;;;5034006;28;20052;-79
2022/04/21 04:44:26;;;;;;;11.00;8.18;;;6.10;99.90;;;;;;5033605;28;20056;-80
2022/04/21 04:46:52;;;;;;;15.18;8.88;;;6.20;99.90;;;;;;5035432;28;20033;-80
2022/04/21 04:49:18;;;;;;;13.57;8.88;;;6.20;99.90;;;;;;5034399;28;20040;-79
2022/04/21 04:51:44;;;;;;;12.43;8.77;;;6.30;99.90;;;;;;5035771;28;20180;-79
2022/04/21 04:54:11;;;;;;;13.77;8.52;;;6.40;99.90;;;;;;5033730;28;20045;-80
2022/04/21 04:56:38;;;;;;;11.82;8.57;;;6.40;99.90;;;;;;5034649;28;20033;-80
2022/04/21 04:59:04;;;;;;;12.23;8.20;;;6.50;99.90;;;;;;5034433;28;20037;-80
2022/04/21 05:01:32;;;;;;;11.60;8.20;;;6.50;99.90;;;;;;5034006;28;20044;-79
2022/04/21 05:04:06;;;;;;;11.18;8.25;;;6.60;99.90;;;;;;5034011;28;20030;-80
2022/04/21 05:06:39;;;;;;;;;;;6.70;99.90;;;;;;5035765;28;20055;-79
2022/04/21 05:09:06;;;;;;;9.85;7.72;;;6.70;99.90;;;;;;5034824;28;20318;-80
2022/04/21 05:11:38;;;;;;;11.90;8.80;;;6.80;99.90;;;;;;5017953;28;20037;-79
2022/04/21 05:14:05;;;;;;;13.00;8.00;;;6.90;99.90;;;;;;5032790;28;20052;-79
2022/04/21 05:16:31;;;;;;;11.05;8.32;;;6.90;99.90;;;;;;5033968;28;20076;-80
2022/04/21 05:18:57;;;;;;;12.23;8.63;;;7.00;99.90;;;;;;5033453;28;20037;-79
2022/04/21 05:21:24;;;;;;;13.50;8.95;;;7.10;99.90;;;;;;5033281;28;20041;-80
2022/04/21 05:23:55;;;;;;;11.63;8.70;;;7.20;99.90;;;;;;5033942;28;20078;-79
2022/04/21 05:26:21;;;;;;;13.52;9.13;;;7.20;99.90;;;;;;5033167;28;20038;-80
2022/04/21 05:28:47;;;;;;;12.88;8.65;;;7.30;99.90;;;;;;5015486;28;20092;-80
2022/04/21 05:31:12;;;;;;;12.02;8.65;;;7.40;99.90;;;;;;5033439;28;20053;-80
2022/04/21 05:33:39;;;;;;;15.38;9.00;;;7.50;99.90;;;;;;5032471;28;20487;-80
2022/04/21 05:36:05;;;;;;;12.23;9.07;;;7.60;99.90;;;;;;5033834;28;20048;-81
2022/04/21 05:38:31;;;;;;;12.68;8.68;;;7.70;99.90;;;;;;5033719;28;20037;-80
2022/04/21 05:40:58;;;;;;;14.48;9.75;;;7.80;99.90;;;;;;5031771;28;20108;-80
2022/04/21 05:43:30;;;;;;;12.25;9.23;;;7.80;99.90;;;;;;5032648;28;20570;-81
2022/04/21 05:45:56;;;;;;;13.55;9.43;;;7.90;99.90;;;;;;5033283;28;20048;-81
2022/04/21 05:48:22;;;;;;;14.30;9.02;;;8.00;99.90;;;;;;5032612;28;20037;-81
2022/04/21 05:50:51;;;;;;;15.20;9.75;;;8.10;99.90;;;;;;5032979;28;20091;-80
2022/04/21 05:53:24;;;;;;;12.45;9.35;;;8.20;99.90;;;;;;5033079;28;20037;-80
2022/04/21 05:55:51;;;;;;;14.13;9.23;;;8.20;99.90;;;;;;5030319;28;20042;-81
2022/04/21 05:58:17;;;;;;;14.65;9.23;;;8.40;99.90;;;;;;5032880;28;20029;-80
2022/04/21 06:00:43;;;;;;;12.43;9.15;;;8.40;99.90;;;;;;5040325;28;20068;-80
2022/04/21 06:03:10;;;;;;;11.07;8.88;;;8.50;99.90;;;;;;5040856;28;20030;-81
2022/04/21 06:05:36;;;;;;;11.48;8.25;;;8.60;99.90;;;;;;5033363;28;20029;-80
2022/04/21 06:08:02;;;;;;;12.27;9.10;;;8.70;99.90;;;;;;5035249;28;20080;-80
2022/04/21 06:10:28;;;;;;;13.38;8.60;;;8.80;99.90;;;;;;5034687;28;20033;-81
2022/04/21 06:12:54;;;;;;;10.93;8.63;;;8.90;99.90;;;;;;5034240;28;20102;-80
2022/04/21 06:15:19;;;;;;;9.90;7.90;;;9.00;99.90;;;;;;5033194;28;20033;-81
2022/04/21 06:17:46;;;;;;;11.55;8.35;;;9.00;99.90;;;;;;5034459;28;20025;-81
2022/04/21 06:20:12;;;;;;;12.05;8.00;;;9.20;99.90;;;;;;5033613;28;20041;-80
2022/04/21 06:22:37;;;;;;;11.95;7.60;;;9.30;99.90;;;;;;5034804;28;20053;-81
2022/04/21 06:25:03;;;;;;;9.68;7.60;;;9.40;99.90;;;;;;5036929;28;20419;-81
2022/04/21 06:27:29;;;;;;;11.80;7.47;;;9.50;99.90;;;;;;5036804;28;20133;-82
2022/04/21 06:29:54;;;;;;;8.70;7.10;;;9.60;99.90;;;;;;5052057;28;20038;-81
2022/04/21 06:32:20;;;;;;;12.32;6.78;;;9.70;99.90;;;;;;5025419;28;20241;-82
2022/04/21 06:34:45;;;;;;;9.45;6.88;;;9.80;99.90;;;;;;5032873;28;20099;-81
2022/04/21 06:37:11;;;;;;;11.48;6.32;;;9.90;99.90;;;;;;5036469;28;20683;-81
2022/04/21 06:39:36;;;;;;;10.43;7.20;;;10.00;99.90;;;;;;5052171;28;20075;-81
2022/04/21 06:42:02;;;;;;;9.88;6.80;;;10.10;99.90;;;;;;5035220;28;20162;-81
2022/04/21 06:49:56;;;;;;;;;;;10.40;99.90;;;;;;5034605;28;20049;-81
2022/04/21 06:52:21;;;;;;;8.68;5.38;;;10.60;99.90;;;;;;5034535;28;19921;-81
2022/04/21 06:54:47;;;;;;;8.15;5.47;;;10.70;99.90;;;;;;5036219;28;20107;-81
2022/04/21 06:57:13;;;;;;;8.35;5.53;;;10.80;99.90;;;;;;5035318;28;20038;-81
2022/04/21 06:59:39;;;;;;;8.88;5.13;;;10.90;99.90;;;;;;5011691;28;20206;-81
2022/04/21 07:02:05;;;;;;;8.48;5.15;;;11.00;99.90;;;;;;5016353;28;20483;-81
2022/04/21 07:04:31;;;;;;;7.63;4.85;;;11.00;99.90;;;;;;5033254;28;20064;-80
2022/04/21 07:06:56;;;;;;;7.65;5.05;;;11.10;99.90;;;;;;5033204;28;20099;-81
2022/04/21 07:09:22;;;;;;;7.28;4.60;;;11.30;99.90;;;;;;5027098;28;20029;-80
2022/04/21 07:11:48;;;;;;;8.30;4.45;;;11.40;99.90;;;;;;5037585;28;20136;-80
2022/04/21 07:14:13;;;;;;;8.52;4.55;;;11.50;99.90;;;;;;5038293;28;20471;-80
2022/04/21 07:16:39;;;;;;;5.18;3.95;;;11.60;99.90;;;;;;5019460;28;20140;-80
2022/04/21 07:19:04;;;;;;;4.57;3.75;;;11.70;99.90;;;;;;5028141;28;20065;-80
2022/04/21 07:21:30;;;;;;;6.20;4.18;;;11.70;99.90;;;;;;5031281;28;20124;-81
2022/04/21 07:23:56;;;;;;;5.60;3.97;;;11.80;99.90;;;;;;5040137;28;20071;-81
2022/04/21 07:26:22;;;;;;;5.82;3.85;;;11.90;99.90;;;;;;5030434;28;20041;-80
2022/04/21 07:28:47;;;;;;;7.15;3.88;;;12.00;99.90;;;;;;5039834;28;20069;-81
2022/04/21 07:31:13;;;;;;;5.20;3.45;;;12.10;99.90;;;;;;5045962;28;20033;-80
2022/04/21 07:33:39;;;;;;;6.10;3.60;;;12.30;99.90;;;;;;5039628;28;20049;-81
2022/04/21 07:36:05;;;;;;;5.97;3.20;;;12.30;99.90;;;;;;5036020;28;20102;-80
2022/04/21 07:38:31;;;;;;;6.53;3.72;;;12.40;99.90;;;;;;5039496;28;20060;-81
2022/04/21 07:40:56;;;;;;;6.18;3.72;;;12.50;99.90;;;;;;5038148;28;20034;-82
2022/04/21 07:43:22;;;;;;;5.25;3.47;;;12.60;99.90;;;;;;5038672;28;20380;-80
2022/04/21 07:45:49;;;;;;;6.50;3.67;;;12.60;99.90;;;;;;5032785;28;20034;-81
2022/04/21 07:48:15;;;;;;;4.40;3.40;;;12.80;99.90;;;;;;5038524;28;20056;-81
2022/04/21 07:50:41;;;;;;;5.63;3.20;;;12.90;99.90;;;;;;5029749;28;20029;-81
2022/04/21 07:53:15;;;;;;;6.93;3.50;;;12.90;99.90;;;;;;5038896;28;20041;-80
2022/04/21 07:55:42;;;;;;;4.53;3.13;;;13.00;99.90;;;;;;5031147;28;20064;-81
2022/04/21 07:58:08;;;;;;;6.03;2.95;;;13.00;99.90;;;;;;5037299;28;20042;-82
2022/04/21 08:00:38;;;;;;;4.90;2.55;;;13.10;99.90;;;;;;5035626;28;20641;-83
2022/04/21 08:03:05;;;;;;;4.63;2.60;;;13.20;99.90;;;;;;5037448;28;20041;-81
2022/04/21 08:05:31;;;;;;;3.50;2.45;;;13.30;99.90;;;;;;5036674;28;20041;-82
2022/04/21 08:07:57;;;;;;;2.88;2.20;;;13.30;99.90;;;;;;5055236;28;20041;-81
2022/04/21 08:10:25;;;;;;;3.00;2.15;;;13.40;99.90;;;;;;5037820;28;20045;-81
2022/04/21 08:12:53;;;;;;;3.42;2.53;;;13.50;99.90;;;;;;5036272;28;20103;-82
2022/04/21 08:15:30;;;;;;;3.83;2.55;;;13.60;99.90;;;;;;5034530;28;20085;-82
2022/04/21 08:18:00;;;;;;;4.78;3.22;;;13.70;99.90;;;;;;5024462;28;20105;-83
2022/04/21 08:20:29;;;;;;;5.00;3.33;;;13.80;99.90;;;;;;5031385;28;20049;-82
2022/04/21 08:22:55;;;;;;;6.80;3.03;;;13.80;99.90;;;;;;5027250;28;20041;-81
2022/04/21 08:33:34;;;;;;;6.82;2.70;;;14.20;99.90;;;;;;5018437;28;20080;-82
2022/04/21 08:36:00;;;;;;;4.63;2.92;;;14.20;99.90;;;;;;5027477;28;20072;-82
2022/04/21 08:38:27;;;;;;;6.38;2.55;;;14.30;99.90;;;;;;5029183;28;20041;-83
2022/04/21 08:40:58;;;;;;;5.65;2.72;;;14.40;99.90;;;;;;5024597;28;20084;-82
2022/04/21 08:43:25;;;;;;;5.63;2.47;;;14.50;99.90;;;;;;5025478;28;20042;-83
2022/04/21 08:45:53;;;;;;;4.57;2.33;;;14.60;99.90;;;;;;5034810;28;20488;-84
2022/04/21 08:48:20;;;;;;;6.38;2.85;;;14.60;99.90;;;;;;5033766;28;20581;-82
2022/04/21 08:50:46;;;;;;;3.75;2.55;;;14.60;99.90;;;;;;5033708;28;20076;-83
2022/04/21 08:53:14;;;;;;;5.60;3.17;;;14.60;99.90;;;;;;5032725;28;20045;-84
2022/04/21 08:55:40;;;;;;;6.15;3.03;;;14.70;99.90;;;;;;5033938;28;20091;-82
2022/04/21 08:58:06;;;;;;;5.60;3.10;;;14.70;99.90;;;;;;5040874;28;20041;-82
2022/04/21 09:00:32;;;;;;;5.90;3.28;;;14.80;99.90;;;;;;5038886;28;20588;-83
2022/04/21 09:02:59;;;;;;;3.85;3.15;;;14.80;99.90;;;;;;5035165;28;20051;-83
2022/04/21 09:05:29;;;;;;;4.97;2.90;;;14.80;99.90;;;;;;5036276;28;20052;-81
2022/04/21 09:07:57;;;;;;;3.92;3.42;;;14.80;99.90;;;;;;5036328;28;20065;-82
2022/04/21 09:10:24;;;;;;;5.43;3.67;;;14.90;99.90;;;;;;5035261;28;20037;-82
2022/04/21 09:12:57;;;;;;;7.47;3.45;;;14.90;99.90;;;;;;5035548;28;20033;-82
2022/04/21 09:15:30;;;;;;;5.10;3.60;;;15.00;99.90;;;;;;5034502;28;20047;-82
2022/04/21 09:18:11;;;;;;;6.30;3.50;;;15.10;99.90;;;;;;5034520;28;20044;-81
2022/04/21 09:20:39;;;;;;;5.18;3.63;;;15.20;99.90;;;;;;5033141;28;20058;-81
2022/04/21 09:23:07;;;;;;;4.68;3.33;;;15.20;99.90;;;;;;5021283;28;20041;-82
2022/04/21 09:25:42;;;;;;;6.65;3.58;;;15.20;99.90;;;;;;5029674;28;20053;-82
2022/04/21 09:28:19;;;;;;;5.90;3.40;;;15.30;99.90;;;;;;5036589;28;20067;-80
2022/04/21 09:30:46;;;;;;;5.30;3.53;;;15.30;99.90;;;;;;5036515;28;20045;-81
2022/04/21 09:33:11;;;;;;;5.60;3.90;;;15.40;99.90;;;;;;5035679;28;20076;-80
2022/04/21 09:35:39;;;;;;;5.95;3.60;;;15.40;99.90;;;;;;5035437;28;20056;-80
2022/04/21 09:38:05;;;;;;;6.80;3.63;;;15.40;99.90;;;;;;5028822;28;20172;-81
2022/04/21 09:40:32;;;;;;;5.82;3.65;;;15.50;99.90;;;;;;5035050;28;20068;-79
2022/04/21 09:43:03;;;;;;;5.53;3.50;;;15.50;99.90;;;;;;5035420;28;20034;-81
2022/04/21 09:48:29;;;;;;;5.13;3.78;;;15.70;99.90;;;;;;5036074;28;20041;-78
2022/04/21 09:51:13;;;;;;;5.75;3.63;;;15.80;99.90;;;;;;5032617;28;20049;-80
2022/04/21 09:53:57;;;;;;;5.20;3.60;;;15.80;99.90;;;;;;5034363;28;20041;-81
2022/04/21 09:56:34;;;;;;;6.35;4.03;;;16.00;99.90;;;;;;5030931;28;20036;-79
2022/04/21 09:59:08;;;;;;;6.65;3.85;;;16.10;99.90;;;;;;5019935;28;20494;-81
2022/04/21 10:01:39;;;;;;;5.28;3.90;;;16.10;99.90;;;;;;5037720;28;20045;-78
2022/04/21 10:04:12;;;;;;;4.80;3.33;;;16.30;99.90;;;;;;5020012;28;20183;-80
2022/04/21 10:06:39;;;;;;;7.63;3.85;;;16.30;99.50;;;;;;5035202;28;20092;-78
2022/04/21 10:09:09;;;;;;;5.75;3.70;;;16.30;99.50;;;;;;5036049;28;20077;-80
2022/04/21 10:11:41;;;;;;;4.28;3.50;;;16.30;99.40;;;;;;5036193;28;20037;-80
2022/04/21 10:14:16;;;;;;;6.97;3.65;;;16.50;99.60;;;;;;5028452;28;20415;-79
2022/04/21 10:16:42;;;;;;;8.23;3.50;;;16.50;99.60;;;;;;5031993;28;20037;-79
2022/04/21 10:19:10;;;;;;;5.20;3.40;;;16.50;99.30;;;;;;5021616;28;20215;-80
2022/04/21 10:21:48;;;;;;;4.43;3.55;;;16.70;99.30;;;;;;5035011;28;20052;-80
2022/04/21 10:24:20;;;;;;;6.80;3.65;;;16.70;98.90;;;;;;5035272;28;20060;-80
2022/04/21 10:26:46;;;;;;;6.00;3.45;;;16.70;98.80;;;;;;5034011;28;20052;-79
2022/04/21 10:29:17;;;;;;;4.05;3.20;;;16.80;98.80;;;;;;5034079;28;20033;-80
2022/04/21 10:32:05;;;;;;;5.78;3.25;;;16.80;98.30;;;;;;5029221;28;20025;-80
2022/04/21 10:34:45;;;;;;;6.53;3.10;;;17.00;98.00;;;;;;5030789;28;20116;-80
2022/04/21 10:37:11;;;;;;;6.35;3.50;;;17.00;97.90;;;;;;5034613;28;20029;-82
2022/04/21 10:39:39;;;;;;;6.78;3.53;;;17.10;98.10;;;;;;5036478;28;20055;-82
2022/04/21 10:42:17;;;;;;;4.85;3.38;;;17.10;97.90;;;;;;5035054;28;20040;-81
2022/04/21 10:44:48;;;;;;;5.68;2.97;;;17.30;98.50;;;;;;5028062;28;20499;-79
2022/04/21 10:47:38;;;;;;;6.05;3.00;;;17.50;97.50;;;;;;5017411;28;20041;-80
2022/04/21 10:50:19;;;;;;;4.28;3.00;;;17.40;96.40;;;;;;5042887;28;20042;-81
2022/04/21 10:58:35;;;;;;;12.10;3.42;;;17.50;95.80;;;;;;5034439;28;20037;-80
2022/04/21 11:01:08;;;;;;;5.25;2.90;;;17.60;95.60;;;;;;5033905;28;20060;-79
2022/04/21 11:03:34;;;;;;;6.68;2.90;;;17.60;95.60;;;;;;5030868;28;20049;-81
2022/04/21 11:06:11;;;;;;;5.28;3.08;;;17.50;95.50;;;;;;5041729;28;20041;-81
2022/04/21 11:08:37;;;;;;;4.82;2.85;;;17.50;95.30;;;;;;5036981;28;20049;-82
2022/04/21 11:11:04;;;;;;;6.88;2.60;;;17.30;95.40;;;;;;5034447;28;20044;-82
2022/04/21 11:13:50;;;;;;;6.07;3.30;;;17.50;95.90;;;;;;5035334;28;20042;-82
2022/04/21 11:16:41;;;;;;;4.20;2.67;;;17.60;95.30;;;;;;5035659;28;20040;-80
2022/04/21 11:19:25;;;;;;;4.82;2.75;;;17.90;94.30;;;;;;5049624;28;20048;-82
2022/04/21 11:21:52;;;;;;;3.88;2.75;;;18.10;94.00;;;;;;5030433;28;20051;-81
2022/04/21 11:24:18;;;;;;;6.65;2.95;;;18.20;94.30;;;;;;5031637;28;20038;-78
2022/04/21 11:26:44;;;;;;;4.82;3.00;;;18.30;93.50;;;;;;5031459;28;20037;-79
2022/04/21 11:29:10;;;;;;;3.58;2.80;;;18.30;93.40;;;;;;5029104;28;20038;-81
2022/04/21 11:31:35;;;;;;;4.43;2.55;;;18.50;93.50;;;;;;5032299;28;20069;-80
2022/04/21 11:34:02;;;;;;;4.03;2.55;;;18.50;92.10;;;;;;5033439;28;20033;-82
2022/04/21 11:36:36;;;;;;;4.95;2.70;;;18.70;92.70;;;;;;5032146;28;20116;-83
2022/04/21 11:39:05;;;;;;;;;;;18.70;92.00;;;;;;5033235;28;20045;-82
2022/04/21 11:41:32;;;;;;;4.05;2.75;;;18.80;91.10;;;;;;5033586;28;19921;-79
2022/04/21 11:43:58;;;;;;;3.88;2.50;;;18.70;90.80;;;;;;5024083;28;20092;-83
2022/04/21 11:46:23;;;;;;;3.13;2.20;;;18.80;91.20;;;;;;5027610;28;20095;-83
2022/04/21 11:49:00;;;;;;;4.32;2.47;;;18.80;91.20;;;;;;5030416;28;20106;-82
2022/04/21 11:51:26;;;;;;;4.20;2.70;;;18.90;91.10;;;;;;5033603;28;20048;-82
2022/04/21 11:53:52;;;;;;;6.65;3.30;;;19.10;91.20;;;;;;5037716;28;20033;-81
2022/04/21 11:56:18;;;;;;;4.88;3.42;;;19.20;90.90;;;;;;5035042;28;20391;-83
2022/04/21 11:58:45;;;;;;;5.85;2.80;;;19.20;91.00;;;;;;5023694;28;21256;-81
2022/04/21 12:06:51;;;;;;;3.58;2.78;;;19.40;91.10;;;;;;5027654;28;20046;-83
2022/04/21 12:09:21;;;;;;;6.30;3.33;;;19.00;90.70;;;;;;5014517;28;20097;-81
2022/04/21 12:11:49;;;;;;;6.93;2.53;;;18.90;90.20;;;;;;5010948;28;20040;-84
2022/04/21 12:14:16;;;;;;;8.05;3.00;;;19.00;90.60;;;;;;5029620;28;20535;-85
2022/04/21 12:16:56;;;;;;;4.65;3.10;;;19.20;90.30;;;;;;5045957;28;20046;-84
2022/04/21 12:19:33;;;;;;;6.63;2.85;;;19.20;89.60;;;;;;5029513;28;20185;-84
2022/04/21 12:22:08;;;;;;;6.10;3.00;;;19.40;88.10;;;;;;5049116;28;20041;-83
2022/04/21 12:24:45;;;;;;;16.52;3.28;;;19.60;88.50;;;;;;5025397;28;20041;-84
2022/04/21 12:27:37;;;;;;;3.92;2.50;;;19.60;86.70;;;;;;5025013;28;20060;-84
2022/04/21 12:30:08;;;;;;;4.32;2.88;;;19.80;85.70;;;;;;5022331;28;20038;-83
2022/04/21 12:32:46;;;;;;;8.40;3.30;;;19.90;85.30;;;;;;5024333;28;20037;-84
2022/04/21 12:35:13;;;;;;;5.25;3.28;;;20.20;86.90;;;;;;5047375;28;20029;-84
2022/04/21 12:37:40;;;;;;;4.13;3.38;;;20.10;85.50;;;;;;5030182;28;20069;-84
2022/04/21 12:40:11;;;;;;;5.93;3.63;;;20.00;86.00;;;;;;5032061;28;20075;-84
2022/04/21 12:42:38;;;;;;;5.30;3.40;;;20.20;86.80;;;;;;5031075;28;20388;-83
2022/04/21 12:45:05;;;;;;;4.82;3.20;;;20.10;86.10;;;;;;5030987;28;20125;-85
2022/04/21 12:47:41;;;;;;;5.15;3.45;;;20.10;85.70;;;;;;5029635;28;20033;-84
2022/04/21 12:50:16;;;;;;;4.65;3.45;;;20.10;85.50;;;;;;5024950;28;20065;-83
2022/04/21 12:52:45;;;;;;;6.45;3.50;;;20.20;86.20;;;;;;5028412;28;20056;-83
2022/04/21 12:55:24;;;;;;;15.70;3.63;;;20.20;85.90;;;;;;5014749;28;20061;-82
2022/04/21 12:58:09;;;;;;;5.82;3.47;;;20.30;86.50;;;;;;5025784;28;20049;-83
2022/04/21 13:00:41;;;;;;;5.18;3.30;;;20.40;84.40;;;;;;5024950;28;20044;-83
2022/04/21 13:03:08;;;;;;;6.55;3.03;;;20.50;84.20;;;;;;5026062;28;20107;-82
2022/04/21 13:05:49;;;;;;;7.18;3.40;;;20.50;84.40;;;;;;5028118;28;20048;-81
2022/04/21 13:08:15;;;;;;;5.32;3.05;;;20.40;80.70;;;;;;5044492;28;20068;-82
2022/04/21 13:10:41;;;;;;;20.20;3.67;;;20.40;82.80;;;;;;5025850;28;20041;-84
2022/04/21 13:13:06;;;;;;;11.30;3.90;;;20.30;83.00;;;;;;5025126;28;20403;-84
2022/04/21 13:15:32;;;;;;;9.05;3.42;;;20.20;83.20;;;;;;5025846;28;20518;-84
2022/04/21 13:17:57;;;;;;;5.88;3.42;;;20.20;83.10;;;;;;5027766;28;20037;-81
2022/04/21 13:23:07;;;;;;;;;;;20.30;83.90;;;;;;5027711;28;20087;-81
2022/04/21 13:25:33;;;;;;;6.03;3.35;;;20.30;80.80;;;;;;5028773;28;19921;-82
2022/04/21 13:27:58;;;;;;;5.82;3.20;;;20.40;83.00;;;;;;5017173;28;20056;-83
2022/04/21 13:30:24;;;;;;;7.93;3.40;;;20.20;82.20;;;;;;5011978;28;20038;-83
2022/04/21 13:35:34;;;;;;;4.95;3.40;;;19.80;82.10;;;;;;5011828;28;20044;-83
2022/04/21 13:38:00;;;;;;;5.55;3.30;;;19.80;82.00;;;;;;5010299;28;20476;-83
2022/04/21 13:40:25;;;;;;;11.02;3.60;;;19.80;82.00;;;;;;5011571;28;20041;-83
2022/04/21 13:42:51;;;;;;;6.20;3.30;;;20.10;82.80;;;;;;5013457;28;20140;-83
2022/04/21 13:45:17;;;;;;;5.63;3.42;;;20.20;81.20;;;;;;4996484;28;20041;-84
2022/04/21 13:47:42;;;;;;;7.60;3.75;;;20.30;81.70;;;;;;5013316;28;20041;-83